createdAt,value
2023-01-19T00:00:35.252Z,76.18
2023-01-19T00:03:04.949Z,75.57
2023-01-19T00:05:33.835Z,75.58
2023-01-19T00:08:14.937Z,75.39
2023-01-19T00:10:47.689Z,75.44
2023-01-19T00:13:15.820Z,75.39
2023-01-19T00:15:43.123Z,75.28
2023-01-19T00:18:11.105Z,74.82
2023-01-19T00:20:39.057Z,75.09
2023-01-19T00:23:08.028Z,74.89
2023-01-19T00:25:35.519Z,74.61
2023-01-19T00:28:02.347Z,74.80
2023-01-19T00:30:29.631Z,74.76
2023-01-19T00:32:57.012Z,74.57
2023-01-19T00:35:23.905Z,74.39
2023-01-19T00:37:50.800Z,74.42
2023-01-19T00:40:17.991Z,74.67
2023-01-19T00:42:44.820Z,74.44
2023-01-19T00:45:20.289Z,74.60
2023-01-19T00:47:48.387Z,74.77
2023-01-19T00:50:16.859Z,74.42
2023-01-19T00:52:44.772Z,74.21
2023-01-19T00:55:14.569Z,74.11
2023-01-19T00:57:42.263Z,73.95
2023-01-19T01:00:13.527Z,73.96
2023-01-19T01:02:42.807Z,73.67
2023-01-19T01:05:11.059Z,73.61
2023-01-19T01:07:41.344Z,73.48
2023-01-19T01:10:10.842Z,74.18
2023-01-19T01:12:38.772Z,73.73
2023-01-19T01:15:08.245Z,73.87
2023-01-19T01:17:35.091Z,73.91
2023-01-19T01:20:02.073Z,73.76
2023-01-19T01:22:28.810Z,74.24
2023-01-19T01:24:55.600Z,74.02
2023-01-19T01:27:22.596Z,73.45
2023-01-19T01:29:49.360Z,73.61
2023-01-19T01:32:16.851Z,73.53
2023-01-19T01:34:44.017Z,73.65
2023-01-19T01:37:11.466Z,73.86
2023-01-19T01:39:38.267Z,73.80
2023-01-19T01:42:17.765Z,73.51
2023-01-19T01:44:53.986Z,73.71
2023-01-19T01:47:29.646Z,73.65
2023-01-19T01:50:17.743Z,73.49
2023-01-19T01:53:06.287Z,73.44
2023-01-19T01:55:39.295Z,73.63
2023-01-19T01:58:07.939Z,73.80
2023-01-19T02:00:54.829Z,74.70
2023-01-19T02:03:24.179Z,75.49
2023-01-19T02:05:53.633Z,75.34
2023-01-19T02:08:50.826Z,75.54
2023-01-19T02:11:36.684Z,75.47
2023-01-19T02:14:06.855Z,75.32
2023-01-19T02:16:35.032Z,74.97
2023-01-19T02:19:01.865Z,75.11
2023-01-19T02:21:54.952Z,73.67
2023-01-19T02:24:22.411Z,74.29
2023-01-19T02:26:50.217Z,73.17
2023-01-19T02:29:20.740Z,72.38
2023-01-19T02:31:47.834Z,72.51
2023-01-19T02:34:20.179Z,72.61
2023-01-19T02:37:02.161Z,71.96
2023-01-19T02:39:36.833Z,71.61
2023-01-19T02:42:09.806Z,70.39
2023-01-19T02:44:38.248Z,69.26
2023-01-19T02:47:05.544Z,68.26
2023-01-19T02:49:32.448Z,68.13
2023-01-19T02:52:01.139Z,67.96
2023-01-19T02:54:49.282Z,67.66
2023-01-19T02:57:27.974Z,66.38
2023-01-19T03:00:13.281Z,66.47
2023-01-19T03:02:43.741Z,65.03
2023-01-19T03:05:19.870Z,66.00
2023-01-19T03:08:05.380Z,63.83
2023-01-19T03:10:52.464Z,63.95
2023-01-19T03:13:30.062Z,64.11
2023-01-19T03:16:06.009Z,64.66
2023-01-19T03:18:35.653Z,65.00
2023-01-19T03:21:06.252Z,65.21
2023-01-19T03:23:36.541Z,65.24
2023-01-19T03:26:08.703Z,65.38
2023-01-19T03:28:39.036Z,65.32
2023-01-19T03:31:15.074Z,64.09
2023-01-19T03:33:47.453Z,61.76
2023-01-19T03:36:35.148Z,62.70
2023-01-19T03:39:04.087Z,61.87
2023-01-19T03:41:32.632Z,62.24
2023-01-19T03:44:00.199Z,62.05
2023-01-19T03:46:28.053Z,62.70
2023-01-19T03:48:55.351Z,63.52
2023-01-19T03:51:22.418Z,63.15
2023-01-19T03:53:50.187Z,63.44
2023-01-19T03:56:22.646Z,64.40
2023-01-19T03:58:49.802Z,64.59
2023-01-19T04:01:17.897Z,64.67
2023-01-19T04:03:44.777Z,64.64
2023-01-19T04:06:11.523Z,64.37
2023-01-19T04:08:38.285Z,63.79
2023-01-19T04:11:05.132Z,64.39
2023-01-19T04:13:31.993Z,64.29
2023-01-19T04:16:03.188Z,62.37
2023-01-19T04:18:33.695Z,63.40
2023-01-19T04:21:05.500Z,63.81
2023-01-19T04:23:32.661Z,63.47
2023-01-19T04:26:04.876Z,60.89
2023-01-19T04:28:32.745Z,61.67
2023-01-19T04:30:59.940Z,61.98
2023-01-19T04:33:28.344Z,61.07
2023-01-19T04:35:56.163Z,63.31
2023-01-19T04:38:26.603Z,62.92
2023-01-19T04:40:54.471Z,62.96
2023-01-19T04:43:21.809Z,63.19
2023-01-19T04:45:49.229Z,64.40
2023-01-19T04:48:18.446Z,64.95
2023-01-19T04:50:45.779Z,64.64
2023-01-19T04:53:13.810Z,64.05
2023-01-19T04:55:41.115Z,64.10
2023-01-19T04:58:08.128Z,64.27
2023-01-19T05:00:35.363Z,64.21
2023-01-19T05:03:03.026Z,64.30
2023-01-19T05:05:30.314Z,64.52
2023-01-19T05:07:57.035Z,65.01
2023-01-19T05:10:24.066Z,65.03
2023-01-19T05:12:51.412Z,65.22
2023-01-19T05:15:18.276Z,65.80
2023-01-19T05:17:45.502Z,65.95
2023-01-19T05:20:16.022Z,66.41
2023-01-19T05:22:43.864Z,66.23
2023-01-19T05:25:10.739Z,66.29
2023-01-19T05:27:38.086Z,65.95
2023-01-19T05:30:06.144Z,65.84
2023-01-19T05:32:33.107Z,66.42
2023-01-19T05:34:59.939Z,66.94
2023-01-19T05:37:26.836Z,65.64
2023-01-19T05:39:54.293Z,67.81
2023-01-19T05:42:21.547Z,68.36
2023-01-19T05:44:48.664Z,68.10
2023-01-19T05:47:15.599Z,68.81
2023-01-19T05:52:46.971Z,68.73
2023-01-19T05:55:15.527Z,69.61
2023-01-19T05:57:43.232Z,69.22
2023-01-19T06:00:10.887Z,69.13
2023-01-19T06:02:37.745Z,69.22
2023-01-19T06:05:04.871Z,69.44
2023-01-19T06:07:32.031Z,69.29
2023-01-19T06:09:58.981Z,69.14
2023-01-19T06:12:26.016Z,69.16
2023-01-19T06:14:52.898Z,69.89
2023-01-19T06:17:20.625Z,69.92
2023-01-19T06:19:47.359Z,70.74
2023-01-19T06:22:14.153Z,70.74
2023-01-19T06:24:40.994Z,71.15
2023-01-19T06:27:08.008Z,70.77
2023-01-19T06:29:34.823Z,70.44
2023-01-19T06:32:01.701Z,70.26
2023-01-19T06:34:29.077Z,70.32
2023-01-19T06:36:56.548Z,70.89
2023-01-19T06:39:23.634Z,70.07
2023-01-19T06:41:50.896Z,70.22
2023-01-19T06:44:17.686Z,70.31
2023-01-19T06:46:44.526Z,70.46
2023-01-19T06:49:11.234Z,70.23
2023-01-19T06:51:38.146Z,70.22
2023-01-19T06:54:05.699Z,70.03
2023-01-19T06:56:32.623Z,70.36
2023-01-19T06:58:59.432Z,70.21
2023-01-19T07:01:27.083Z,69.62
2023-01-19T07:03:54.588Z,70.26
2023-01-19T07:06:21.348Z,70.17
2023-01-19T07:08:48.229Z,69.63
2023-01-19T07:11:25.246Z,69.21
2023-01-19T07:13:57.661Z,70.07
2023-01-19T07:16:24.863Z,70.42
2023-01-19T07:18:51.641Z,70.23
2023-01-19T07:21:19.280Z,70.03
2023-01-19T07:23:51.376Z,70.58
2023-01-19T07:26:21.236Z,70.93
2023-01-19T07:28:49.008Z,71.10
2023-01-19T07:31:16.631Z,71.22
2023-01-19T07:33:43.724Z,70.81
2023-01-19T07:36:10.719Z,70.19
2023-01-19T07:38:37.547Z,70.17
2023-01-19T07:41:06.955Z,69.71
2023-01-19T07:43:34.405Z,69.82
2023-01-19T07:46:04.390Z,69.34
2023-01-19T07:48:31.570Z,69.35
2023-01-19T07:51:05.354Z,69.15
2023-01-19T07:53:32.832Z,69.04
2023-01-19T07:55:59.630Z,68.70
2023-01-19T07:58:26.942Z,68.96
2023-01-19T08:00:53.942Z,68.58
2023-01-19T08:03:20.850Z,68.35
2023-01-19T08:05:52.383Z,68.44
2023-01-19T08:08:20.357Z,68.36
2023-01-19T08:10:50.385Z,68.25
2023-01-19T08:13:17.563Z,67.70
2023-01-19T08:15:44.819Z,67.29
2023-01-19T08:18:11.719Z,67.10
2023-01-19T08:20:38.662Z,67.13
2023-01-19T08:23:05.573Z,66.42
2023-01-19T08:25:33.583Z,66.14
2023-01-19T08:28:00.513Z,65.83
2023-01-19T08:30:27.458Z,65.21
2023-01-19T08:32:55.068Z,64.48
2023-01-19T08:35:22.590Z,64.07
2023-01-19T08:37:49.834Z,64.12
2023-01-19T08:40:18.357Z,64.35
2023-01-19T08:42:45.644Z,64.42
2023-01-19T08:45:12.461Z,64.62
2023-01-19T08:47:39.257Z,63.73
2023-01-19T08:50:06.525Z,62.44
2023-01-19T08:52:33.345Z,62.56
2023-01-19T08:55:00.826Z,63.18
2023-01-19T08:57:27.729Z,63.52
2023-01-19T08:59:54.609Z,63.66
2023-01-19T09:02:21.557Z,63.40
2023-01-19T09:04:48.903Z,62.35
2023-01-19T09:07:15.779Z,62.38
2023-01-19T09:09:43.558Z,61.92
2023-01-19T09:12:10.344Z,61.16
2023-01-19T09:14:37.123Z,59.33
2023-01-19T09:17:04.328Z,57.48
2023-01-19T09:19:31.116Z,57.22
2023-01-19T09:21:59.734Z,56.67
2023-01-19T09:24:26.842Z,57.46
2023-01-19T09:26:53.651Z,56.91
2023-01-19T09:29:20.449Z,57.41
2023-01-19T09:31:47.217Z,57.77
2023-01-19T09:34:14.044Z,57.96
2023-01-19T09:36:40.840Z,58.31
2023-01-19T09:39:07.649Z,59.10
2023-01-19T09:41:38.768Z,58.91
2023-01-19T09:44:06.372Z,59.78
2023-01-19T09:46:41.486Z,59.77
2023-01-19T09:49:21.643Z,60.67
2023-01-19T09:51:51.044Z,61.15
2023-01-19T09:54:27.802Z,61.27
2023-01-19T09:56:54.614Z,60.94
2023-01-19T09:59:26.000Z,61.41
2023-01-19T10:02:11.252Z,61.75
2023-01-19T10:04:42.376Z,61.47
2023-01-19T10:07:20.970Z,61.43
2023-01-19T10:10:02.868Z,61.85
2023-01-19T10:12:45.913Z,61.92
2023-01-19T10:15:15.976Z,61.03
2023-01-19T10:17:51.843Z,61.37
2023-01-19T10:20:29.020Z,61.09
2023-01-19T10:22:59.409Z,60.85
2023-01-19T10:25:27.779Z,60.44
2023-01-19T10:27:55.105Z,59.96
2023-01-19T10:30:27.928Z,58.51
2023-01-19T10:32:55.287Z,58.47
2023-01-19T10:35:25.192Z,57.93
2023-01-19T10:37:59.865Z,57.29
2023-01-19T10:40:49.088Z,57.43
2023-01-19T10:43:34.574Z,57.76
2023-01-19T10:46:05.922Z,56.84
2023-01-19T10:48:42.559Z,56.61
2023-01-19T10:51:11.923Z,56.90
2023-01-19T10:53:38.795Z,55.94
2023-01-19T10:56:24.192Z,56.23
2023-01-19T10:58:51.222Z,55.36
2023-01-19T11:01:26.750Z,55.20
2023-01-19T11:03:55.592Z,54.92
2023-01-19T11:06:26.374Z,53.02
2023-01-19T11:09:10.783Z,52.24
2023-01-19T11:11:47.241Z,52.36
2023-01-19T11:14:18.254Z,51.90
2023-01-19T11:16:58.804Z,50.87
2023-01-19T11:19:31.979Z,50.42
2023-01-19T11:22:22.828Z,49.82
2023-01-19T11:24:50.269Z,48.45
2023-01-19T11:27:19.667Z,46.61
2023-01-19T11:29:57.160Z,45.92
2023-01-19T11:32:27.465Z,43.98
2023-01-19T11:34:54.319Z,43.53
2023-01-19T11:37:21.120Z,42.87
2023-01-19T11:39:57.185Z,42.68
2023-01-19T11:42:25.508Z,41.80
2023-01-19T11:45:04.306Z,42.19
2023-01-19T11:47:39.402Z,42.24
2023-01-19T11:50:12.867Z,42.60
2023-01-19T11:52:48.648Z,42.59
2023-01-19T11:55:29.012Z,43.02
2023-01-19T11:57:56.205Z,42.79
2023-01-19T12:00:26.907Z,42.68
2023-01-19T12:02:59.665Z,42.04
2023-01-19T12:05:33.310Z,41.62
2023-01-19T12:08:07.012Z,41.33
2023-01-19T12:10:41.615Z,41.36
2023-01-19T12:13:21.564Z,42.23
2023-01-19T12:16:11.407Z,41.49
2023-01-19T12:18:49.686Z,41.16
2023-01-19T12:21:17.411Z,40.46
2023-01-19T12:24:02.329Z,40.14
2023-01-19T12:27:00.493Z,41.40
2023-01-19T12:29:35.634Z,41.33
2023-01-19T12:32:14.596Z,41.76
2023-01-19T12:34:46.890Z,41.70
2023-01-19T12:37:31.532Z,40.94
2023-01-19T12:40:01.734Z,42.11
2023-01-19T12:42:29.419Z,41.98
2023-01-19T12:45:12.383Z,42.54
2023-01-19T12:47:39.825Z,42.82
2023-01-19T12:50:19.234Z,42.90
2023-01-19T12:53:03.069Z,43.76
2023-01-19T12:55:46.563Z,43.96
2023-01-19T12:58:24.541Z,44.90
2023-01-19T13:01:14.024Z,45.51
2023-01-19T13:04:01.498Z,46.85
2023-01-19T13:06:48.300Z,43.96
2023-01-19T13:09:34.242Z,44.07
2023-01-19T13:12:15.095Z,45.19
2023-01-19T13:14:44.725Z,47.12
2023-01-19T13:17:25.908Z,48.60
2023-01-19T13:20:14.986Z,48.70
2023-01-19T13:22:50.667Z,48.14
2023-01-19T13:25:35.655Z,48.75
2023-01-19T13:28:08.281Z,48.50
2023-01-19T13:30:36.850Z,48.68
2023-01-19T13:33:21.460Z,49.53
2023-01-19T13:35:59.002Z,49.79
2023-01-19T13:38:27.937Z,50.27
2023-01-19T13:40:56.402Z,49.90
2023-01-19T13:43:29.132Z,50.06
2023-01-19T13:45:56.691Z,50.04
2023-01-19T13:48:25.553Z,49.82
2023-01-19T13:51:04.984Z,49.95
2023-01-19T13:53:32.609Z,50.54
2023-01-19T13:56:09.819Z,51.07
2023-01-19T13:58:36.907Z,52.09
2023-01-19T14:01:03.739Z,52.10
2023-01-19T14:03:30.706Z,52.27
2023-01-19T14:05:57.676Z,51.76
2023-01-19T14:08:25.726Z,51.99
2023-01-19T14:10:56.307Z,52.55
2023-01-19T14:13:26.352Z,52.70
2023-01-19T14:15:56.939Z,54.11
2023-01-19T14:18:25.794Z,52.97
2023-01-19T14:21:11.382Z,54.41
2023-01-19T14:23:44.204Z,54.10
2023-01-19T14:26:39.236Z,55.35
2023-01-19T14:29:29.037Z,54.95
2023-01-19T14:32:21.953Z,54.47
2023-01-19T14:34:48.797Z,54.63
2023-01-19T14:37:30.431Z,54.05
2023-01-19T14:40:10.915Z,53.75
2023-01-19T14:42:49.844Z,52.36
2023-01-19T14:45:20.626Z,52.99
2023-01-19T14:47:58.725Z,52.76
2023-01-19T14:50:32.993Z,50.30
2023-01-19T14:53:03.540Z,50.54
2023-01-19T14:55:43.852Z,51.61
2023-01-19T14:58:15.677Z,52.12
2023-01-19T15:00:43.370Z,52.43
2023-01-19T15:03:10.198Z,51.85
2023-01-19T15:05:42.790Z,51.59
2023-01-19T15:08:15.255Z,51.22
2023-01-19T15:10:43.267Z,51.30
2023-01-19T15:13:19.191Z,51.50
2023-01-19T15:15:46.691Z,51.89
2023-01-19T15:18:17.198Z,51.80
2023-01-19T15:20:43.964Z,52.62
2023-01-19T15:23:11.763Z,50.97
2023-01-19T15:25:39.600Z,50.75
2023-01-19T15:28:14.653Z,51.77
2023-01-19T15:30:41.574Z,51.53
2023-01-19T15:33:19.682Z,54.52
2023-01-19T15:35:46.400Z,54.48
2023-01-19T15:38:13.229Z,55.74
2023-01-19T15:40:40.074Z,57.14
2023-01-19T15:43:06.827Z,58.71
2023-01-19T15:45:36.982Z,57.38
2023-01-19T15:48:09.565Z,57.91
2023-01-19T15:50:39.056Z,58.47
2023-01-19T15:53:07.136Z,58.45
2023-01-19T15:55:34.020Z,60.08
2023-01-19T15:58:03.922Z,61.38
2023-01-19T16:00:32.896Z,61.71
2023-01-19T16:03:01.722Z,62.98
2023-01-19T16:05:42.001Z,63.69
2023-01-19T16:08:10.367Z,64.35
2023-01-19T16:10:37.233Z,64.62
2023-01-19T16:13:04.292Z,64.88
2023-01-19T16:15:31.049Z,63.51
2023-01-19T16:17:58.395Z,64.28
2023-01-19T16:20:25.233Z,63.93
2023-01-19T16:22:52.359Z,65.01
2023-01-19T16:25:20.889Z,64.08
2023-01-19T16:27:47.689Z,64.53
2023-01-19T16:30:16.387Z,64.27
2023-01-19T16:32:43.186Z,63.57
2023-01-19T16:35:10.127Z,64.53
2023-01-19T16:37:36.877Z,65.83
2023-01-19T16:40:04.456Z,63.75
2023-01-19T16:42:31.249Z,63.85
2023-01-19T16:44:58.317Z,64.20
2023-01-19T16:47:25.502Z,64.59
2023-01-19T16:50:11.147Z,65.45
2023-01-19T16:52:38.772Z,65.21
2023-01-19T16:55:09.573Z,64.53
2023-01-19T16:57:39.328Z,63.84
2023-01-19T17:00:09.293Z,63.33
2023-01-19T17:02:36.420Z,63.52
2023-01-19T17:05:03.693Z,63.41
2023-01-19T17:07:30.961Z,63.34
2023-01-19T17:09:57.975Z,63.40
2023-01-19T17:12:25.523Z,63.38
2023-01-19T17:14:52.199Z,62.57
2023-01-19T17:17:19.018Z,62.04
2023-01-19T17:19:46.064Z,61.70
2023-01-19T17:22:14.353Z,61.71
2023-01-19T17:24:42.606Z,61.91
2023-01-19T17:27:09.859Z,61.70
2023-01-19T17:29:36.726Z,61.57
2023-01-19T17:32:04.053Z,61.57
2023-01-19T17:34:31.145Z,61.70
2023-01-19T17:37:03.272Z,61.71
2023-01-19T17:39:30.545Z,62.00
2023-01-19T17:41:58.036Z,62.34
2023-01-19T17:44:25.632Z,62.08
2023-01-19T17:46:52.531Z,62.53
2023-01-19T17:49:19.346Z,63.05
2023-01-19T17:51:46.412Z,62.90
2023-01-19T17:54:14.625Z,62.83
2023-01-19T17:56:41.712Z,62.74
2023-01-19T17:59:08.851Z,63.13
2023-01-19T18:01:40.623Z,63.08
2023-01-19T18:04:08.588Z,62.96
2023-01-19T18:06:36.750Z,63.07
2023-01-19T18:09:06.801Z,63.18
2023-01-19T18:11:34.367Z,63.43
2023-01-19T18:14:02.253Z,63.72
2023-01-19T18:16:30.004Z,64.47
2023-01-19T18:18:57.504Z,64.67
2023-01-19T18:21:28.287Z,64.52
2023-01-19T18:24:04.846Z,65.24
2023-01-19T18:26:34.423Z,65.33
2023-01-19T18:29:01.360Z,65.38
2023-01-19T18:31:28.371Z,65.01
2023-01-19T18:33:55.278Z,64.80
2023-01-19T18:36:22.119Z,64.73
2023-01-19T18:38:49.665Z,64.41
2023-01-19T18:41:18.664Z,63.98
2023-01-19T18:43:46.616Z,63.76
2023-01-19T18:46:14.466Z,63.64
2023-01-19T18:48:42.082Z,63.90
2023-01-19T18:51:11.278Z,63.70
2023-01-19T18:53:38.591Z,64.01
2023-01-19T18:56:06.313Z,64.07
2023-01-19T18:58:36.315Z,64.44
2023-01-19T19:01:03.223Z,64.68
2023-01-19T19:03:30.302Z,64.98
2023-01-19T19:05:57.608Z,64.92
2023-01-19T19:08:24.561Z,65.21
2023-01-19T19:10:52.058Z,64.98
2023-01-19T19:13:21.875Z,65.04
2023-01-19T19:15:50.025Z,64.70
2023-01-19T19:18:16.772Z,65.17
2023-01-19T19:20:44.605Z,65.38
2023-01-19T19:23:11.881Z,65.35
2023-01-19T19:25:39.424Z,65.65
2023-01-19T19:28:06.631Z,65.66
2023-01-19T19:31:15.736Z,65.00
2023-01-19T19:33:43.098Z,65.33
2023-01-19T19:36:12.623Z,64.95
2023-01-19T19:38:42.866Z,65.24
2023-01-19T19:41:13.090Z,65.00
2023-01-19T19:43:40.251Z,65.33
2023-01-19T19:46:10.033Z,65.55
2023-01-19T19:48:39.377Z,65.37
2023-01-19T19:51:17.972Z,65.68
2023-01-19T19:53:48.933Z,66.07
2023-01-19T19:56:21.946Z,65.98
2023-01-19T19:58:50.235Z,66.21
2023-01-19T20:01:25.310Z,66.31
2023-01-19T20:03:53.830Z,66.33
2023-01-19T20:06:23.107Z,66.47
2023-01-19T20:08:55.782Z,66.66
2023-01-19T20:11:26.559Z,66.89
2023-01-19T20:13:54.100Z,67.47
2023-01-19T20:16:22.718Z,67.33
2023-01-19T20:18:53.955Z,67.30
2023-01-19T20:21:26.569Z,67.50
2023-01-19T20:23:55.895Z,67.15
2023-01-19T20:26:26.490Z,67.23
2023-01-19T20:28:54.770Z,67.65
2023-01-19T20:31:27.177Z,67.10
2023-01-19T20:33:56.177Z,67.96
2023-01-19T20:36:24.415Z,68.99
2023-01-19T20:38:53.023Z,69.86
2023-01-19T20:41:22.691Z,70.39
2023-01-19T20:43:50.822Z,71.42
2023-01-19T20:46:18.981Z,71.19
2023-01-19T20:48:50.883Z,72.20
2023-01-19T20:51:19.530Z,73.67
2023-01-19T20:53:48.302Z,73.56
2023-01-19T20:56:15.599Z,74.05
2023-01-19T20:58:43.526Z,70.84
2023-01-19T21:01:22.706Z,73.33
2023-01-19T21:03:50.136Z,72.09
2023-01-19T21:06:19.570Z,72.46
2023-01-19T21:08:51.969Z,72.51
2023-01-19T21:11:21.328Z,73.77
2023-01-19T21:13:49.264Z,75.92
2023-01-19T21:16:16.976Z,75.57
2023-01-19T21:18:44.504Z,74.46
2023-01-19T21:21:28.435Z,75.83
2023-01-19T21:23:57.469Z,76.47
2023-01-19T21:26:25.361Z,76.37
2023-01-19T21:28:52.263Z,74.41
2023-01-19T21:31:20.960Z,76.19
2023-01-19T21:33:49.378Z,75.57
2023-01-19T21:36:16.613Z,75.32
2023-01-19T21:38:44.063Z,76.74
2023-01-19T21:41:12.814Z,76.60
2023-01-19T21:43:42.744Z,76.42
2023-01-19T21:46:29.193Z,76.57
2023-01-19T21:49:01.313Z,76.93
2023-01-19T21:51:33.664Z,77.10
2023-01-19T21:54:01.829Z,76.86
2023-01-19T21:56:30.090Z,77.12
2023-01-19T21:58:58.014Z,77.11
2023-01-19T22:01:25.263Z,77.26
2023-01-19T22:03:56.858Z,77.18
2023-01-19T22:06:25.532Z,76.18
2023-01-19T22:08:52.759Z,74.36
2023-01-19T22:11:20.756Z,72.84
2023-01-19T22:13:47.938Z,73.36
2023-01-19T22:16:17.442Z,73.61
2023-01-19T22:18:47.385Z,73.66
2023-01-19T22:21:19.670Z,73.07
2023-01-19T22:23:55.435Z,72.57
2023-01-19T22:26:22.659Z,73.38
2023-01-19T22:28:54.720Z,74.15
2023-01-19T22:31:24.606Z,74.51
2023-01-19T22:33:52.125Z,73.95
2023-01-19T22:36:23.579Z,73.67
2023-01-19T22:38:52.869Z,73.16
2023-01-19T22:41:25.029Z,74.35
2023-01-19T22:43:55.436Z,73.53
2023-01-19T22:46:25.367Z,71.30
2023-01-19T22:48:53.587Z,71.65
2023-01-19T22:51:21.810Z,72.57
2023-01-19T22:53:48.862Z,73.22
2023-01-19T22:56:20.597Z,74.54
2023-01-19T22:58:48.355Z,75.15
2023-01-19T23:01:18.112Z,75.58
2023-01-19T23:03:46.223Z,76.32
2023-01-19T23:06:16.258Z,75.76
2023-01-19T23:08:44.901Z,75.50
2023-01-19T23:11:14.437Z,75.86
2023-01-19T23:13:41.932Z,76.24
2023-01-19T23:16:10.804Z,75.32
2023-01-19T23:18:38.096Z,71.42
2023-01-19T23:21:11.012Z,74.22
2023-01-19T23:23:37.880Z,73.71
2023-01-19T23:26:16.231Z,74.68
2023-01-19T23:28:44.354Z,74.85
2023-01-19T23:31:18.476Z,75.85
2023-01-19T23:33:45.336Z,75.70
2023-01-19T23:36:13.141Z,74.85
2023-01-19T23:38:41.259Z,74.70
2023-01-19T23:41:09.036Z,74.47
2023-01-19T23:43:36.408Z,74.70
2023-01-19T23:46:08.695Z,74.73
2023-01-19T23:48:36.100Z,75.12
2023-01-19T23:51:12.510Z,75.17
2023-01-19T23:53:41.059Z,75.81
2023-01-19T23:56:24.054Z,75.96
2023-01-19T23:58:59.811Z,75.29
